Time;durP1;ratioP1;P1;durP2;ratioP2;P2;SDS_P1;SDS_P2;PMS_P1;PMS_P2;Temp;Humidity;BMP_temperature;BMP_pressure;BME280_temperature;BME280_humidity;BME280_pressure;Samples;Min_cycle;Max_cycle;Signal;HPM_P1;HPM_P2
2023/09/22 00:00:01;;;;;;;6.60;2.80;;;;;;;21.97;92.35;99449.69;5080500;28;20031;-70
2023/09/22 00:02:27;;;;;;;7.43;3.65;;;;;;;21.92;92.89;99449.78;5114208;28;20025;-70
2023/09/22 00:04:52;;;;;;;6.28;2.80;;;;;;;21.94;92.76;99442.88;5113797;28;20046;-70
2023/09/22 00:07:18;;;;;;;5.13;2.75;;;;;;;21.97;92.52;99446.94;5096562;28;20024;-70
2023/09/22 00:09:44;;;;;;;9.50;3.08;;;;;;;21.99;92.61;99453.75;5095797;28;20077;-70
2023/09/22 00:12:09;;;;;;;3.63;2.65;;;;;;;21.95;93.13;99441.78;5087503;28;20028;-70
2023/09/22 00:14:35;;;;;;;4.07;2.63;;;;;;;21.92;93.32;99428.72;5112547;28;20029;-70
2023/09/22 00:17:02;;;;;;;7.78;2.70;;;;;;;21.87;93.38;99428.00;5096057;28;20054;-70
2023/09/22 00:19:27;;;;;;;7.05;2.80;;;;;;;21.91;93.58;99440.75;5096781;28;20043;-70
2023/09/22 00:21:55;;;;;;;4.63;2.80;;;;;;;21.87;93.54;99425.25;5113640;28;20221;-70
2023/09/22 00:24:21;;;;;;;8.20;2.78;;;;;;;21.88;93.93;99441.38;5079315;28;20028;-70
2023/09/22 00:26:47;;;;;;;5.95;3.10;;;;;;;21.91;93.05;99429.81;5114087;28;20035;-71
2023/09/22 00:29:12;;;;;;;4.05;2.67;;;;;;;21.78;94.07;99436.94;5096495;28;20028;-70
2023/09/22 00:31:38;;;;;;;5.20;2.92;;;;;;;21.87;93.88;99450.72;5095548;28;20023;-70
2023/09/22 00:34:03;;;;;;;5.63;3.28;;;;;;;21.77;94.52;99461.88;5103262;28;20039;-70
2023/09/22 00:36:29;;;;;;;7.22;2.95;;;;;;;21.68;95.43;99453.56;5062994;28;20028;-72
2023/09/22 00:38:54;;;;;;;6.25;3.00;;;;;;;21.78;94.90;99464.31;5096594;28;20032;-70
2023/09/22 00:41:21;;;;;;;6.07;2.92;;;;;;;21.79;95.17;99459.66;5097093;28;20032;-70
2023/09/22 00:43:46;;;;;;;3.55;2.78;;;;;;;21.77;95.38;99459.16;5115786;28;20028;-70
2023/09/22 00:46:12;;;;;;;6.57;3.30;;;;;;;21.64;95.96;99444.34;5097432;28;20028;-70
2023/09/22 00:48:40;;;;;;;7.53;3.45;;;;;;;21.80;96.05;99453.88;5098763;28;20087;-70
2023/09/22 00:51:06;;;;;;;5.43;2.97;;;;;;;21.73;97.24;99450.75;5097496;28;20016;-70
2023/09/22 00:53:34;;;;;;;5.22;3.20;;;;;;;21.77;97.38;99448.19;5097181;28;20015;-70
2023/09/22 00:56:01;;;;;;;7.45;3.22;;;;;;;21.72;98.03;99449.13;5081167;28;20048;-71
2023/09/22 00:58:26;;;;;;;4.15;2.80;;;;;;;21.64;99.13;99433.41;5087977;28;20486;-70
2023/09/22 01:00:53;;;;;;;5.45;3.45;;;;;;;21.65;99.57;99426.00;5115312;28;20036;-70
2023/09/22 01:03:19;;;;;;;7.45;2.90;;;;;;;21.62;99.91;99416.47;5098159;28;20039;-70
2023/09/22 01:05:46;;;;;;;8.45;3.33;;;;;;;21.43;100.00;99396.66;5115366;28;20035;-71
2023/09/22 01:08:12;;;;;;;6.22;3.33;;;;;;;21.60;100.00;99412.44;5115339;28;20004;-70
2023/09/22 01:10:39;;;;;;;7.47;3.33;;;;;;;21.53;100.00;99413.66;5091355;28;20028;-70
2023/09/22 01:13:05;;;;;;;7.80;3.35;;;;;;;21.58;100.00;99416.28;5078199;28;20118;-70
2023/09/22 01:15:33;;;;;;;6.20;3.17;;;;;;;21.58;100.00;99408.06;5112093;28;20016;-69
2023/09/22 01:17:59;;;;;;;4.57;3.30;;;;;;;21.61;100.00;99400.38;5096902;28;20031;-70
2023/09/22 01:20:25;;;;;;;8.90;3.70;;;;;;;21.60;100.00;99396.03;5096536;28;20024;-70
2023/09/22 01:22:51;;;;;;;7.70;3.35;;;;;;;21.61;100.00;99400.38;5079332;28;20028;-70
2023/09/22 01:25:17;;;;;;;7.30;2.97;;;;;;;21.55;100.00;99400.47;5092128;28;20072;-70
2023/09/22 01:27:42;;;;;;;4.55;2.80;;;;;;;21.51;100.00;99412.34;5094289;28;20024;-70
2023/09/22 01:30:09;;;;;;;5.18;3.22;;;;;;;21.56;100.00;99420.47;5093923;28;20062;-70
2023/09/22 01:32:37;;;;;;;4.80;2.90;;;;;;;21.51;100.00;99421.34;5095140;28;20058;-70
2023/09/22 01:35:04;;;;;;;7.40;3.22;;;;;;;21.57;100.00;99428.34;5083590;28;20055;-70
2023/09/22 01:37:34;;;;;;;5.80;3.00;;;;;;;21.52;100.00;99406.56;5070638;28;20084;-70
2023/09/22 01:40:00;;;;;;;4.68;3.15;;;;;;;21.61;100.00;99420.34;5094085;28;20031;-70
2023/09/22 01:42:26;;;;;;;5.38;3.03;;;;;;;21.52;100.00;99403.00;5094166;28;20024;-70
2023/09/22 01:44:51;;;;;;;4.45;3.00;;;;;;;21.62;100.00;99419.22;5064405;28;20062;-70
2023/09/22 01:47:17;;;;;;;4.68;2.92;;;;;;;21.53;100.00;99413.66;5093159;28;20029;-70
2023/09/22 01:49:42;;;;;;;5.53;2.80;;;;;;;21.55;100.00;99418.81;5093131;28;20032;-71
2023/09/22 01:52:08;;;;;;;5.07;2.90;;;;;;;21.49;100.00;99404.44;5092656;28;20054;-70
2023/09/22 01:54:33;;;;;;;6.82;2.95;;;;;;;21.56;100.00;99412.25;5093606;28;20024;-70
2023/09/22 01:56:59;;;;;;;9.50;3.20;;;;;;;21.58;100.00;99408.06;5092646;28;20401;-69
2023/09/22 01:59:24;;;;;;;6.97;3.17;;;;;;;21.62;100.00;99419.22;5082371;28;20056;-71
2023/09/22 02:01:50;;;;;;;7.93;2.80;;;;;;;21.55;100.00;99413.34;5086362;28;20013;-70
2023/09/22 02:04:15;;;;;;;8.32;3.00;;;;;;;21.54;100.00;99420.75;5081795;28;20056;-70
2023/09/22 02:06:41;;;;;;;6.93;3.28;;;;;;;21.41;100.00;99386.00;5065483;28;20033;-70
2023/09/22 02:09:07;;;;;;;6.93;3.30;;;;;;;21.68;100.00;99417.19;5083957;28;20441;-70
2023/09/22 02:11:32;;;;;;;7.43;3.10;;;;;;;21.70;100.00;99395.78;5090065;28;20047;-70
2023/09/22 02:13:58;;;;;;;6.60;3.00;;;;;;;21.70;100.00;99399.34;5092059;28;20009;-70
2023/09/22 02:16:23;;;;;;;8.15;3.45;;;;;;;21.65;100.00;99399.44;5090894;28;20054;-70
2023/09/22 02:18:50;;;;;;;11.85;3.70;;;;;;;21.54;100.00;99387.91;5075117;28;20032;-70
2023/09/22 02:21:17;;;;;;;8.70;3.80;;;;;;;21.66;100.00;99400.28;5093857;28;20032;-70
2023/09/22 02:23:43;;;;;;;8.57;4.00;;;;;;;21.60;100.00;99407.78;5063974;28;20025;-71
2023/09/22 02:26:08;;;;;;;8.13;3.70;;;;;;;21.57;100.00;99405.66;5073760;28;20042;-70
2023/09/22 02:28:34;;;;;;;8.55;3.63;;;;;;;21.53;100.00;99408.19;5070846;28;20037;-70
2023/09/22 02:30:59;;;;;;;10.68;3.33;;;;;;;21.51;100.00;99406.88;5089676;28;20035;-70
2023/09/22 02:33:25;;;;;;;12.63;4.28;;;;;;;21.46;100.00;99385.91;5082144;28;20029;-71
2023/09/22 02:35:51;;;;;;;9.00;3.33;;;;;;;21.39;100.00;99404.66;5092981;28;20020;-71
2023/09/22 02:38:16;;;;;;;10.30;3.13;;;;;;;21.35;100.00;99396.22;5095261;28;20039;-72
2023/09/22 02:40:44;;;;;;;9.70;3.38;;;;;;;21.25;100.00;99358.09;5095211;28;20031;-71
2023/09/22 02:43:09;;;;;;;9.00;3.33;;;;;;;21.28;100.00;99370.38;5093592;28;20426;-71
2023/09/22 02:45:39;;;;;;;9.30;3.50;;;;;;;21.34;100.00;99366.41;5077637;28;20036;-71
2023/09/22 02:48:08;;;;;;;13.38;3.35;;;;;;;21.32;100.00;99374.09;5065141;28;20035;-71
2023/09/22 02:50:33;;;;;;;9.40;3.42;;;;;;;21.27;100.00;99350.41;5064249;28;20036;-71
2023/09/22 02:53:03;;;;;;;12.82;3.20;;;;;;;21.14;100.00;99344.94;5074091;28;20028;-71
2023/09/22 02:55:29;;;;;;;8.88;3.20;;;;;;;21.10;100.00;99331.09;5043437;28;20047;-72
2023/09/22 02:57:55;;;;;;;10.15;3.72;;;;;;;21.18;100.00;99329.53;5078329;28;20027;-72
2023/09/22 03:00:20;;;;;;;14.55;4.00;;;;;;;21.13;100.00;99324.19;5094868;28;20017;-71
2023/09/22 03:02:50;;;;;;;11.75;3.70;;;;;;;21.14;100.00;99325.81;5076732;28;20039;-72
2023/09/22 03:05:16;;;;;;;18.73;3.80;;;;;;;21.16;100.00;99315.34;5075551;28;20051;-72
2023/09/22 03:07:42;;;;;;;15.15;3.50;;;;;;;21.08;100.00;99303.22;5093288;28;20036;-72
2023/09/22 03:10:10;;;;;;;8.95;3.30;;;;;;;21.06;100.00;99308.19;5077746;28;20077;-72
2023/09/22 03:12:37;;;;;;;11.40;3.40;;;;;;;21.05;100.00;99307.34;5076467;28;20059;-73
2023/09/22 03:15:04;;;;;;;12.93;3.70;;;;;;;21.05;100.00;99304.63;5093244;28;20020;-72
2023/09/22 03:17:30;;;;;;;9.95;3.45;;;;;;;21.02;100.00;99297.03;5060079;28;20028;-72
2023/09/22 03:19:58;;;;;;;15.32;3.80;;;;;;;20.99;100.00;99294.09;5080777;28;20005;-72
2023/09/22 03:22:24;;;;;;;11.77;3.35;;;;;;;20.99;100.00;99294.94;5081823;28;20054;-72
2023/09/22 03:24:50;;;;;;;11.48;3.55;;;;;;;20.98;100.00;99293.28;5080999;28;20091;-72
2023/09/22 03:27:16;;;;;;;11.13;3.20;;;;;;;20.99;100.00;99294.94;5079251;28;20039;-72
2023/09/22 03:29:41;;;;;;;9.80;2.95;;;;;;;20.88;100.00;99277.09;5053277;28;20382;-72
2023/09/22 03:32:06;;;;;;;13.63;3.78;;;;;;;20.99;100.00;99300.41;5086082;28;20059;-73
2023/09/22 03:34:32;;;;;;;17.95;3.88;;;;;;;20.96;100.00;99295.53;5094768;28;20135;-71
2023/09/22 03:36:59;;;;;;;15.95;3.47;;;;;;;20.99;100.00;99294.09;5077439;28;20037;-71
2023/09/22 03:39:26;;;;;;;16.40;3.90;;;;;;;20.94;100.00;99291.47;5090230;28;20036;-72
2023/09/22 03:41:54;;;;;;;11.70;3.47;;;;;;;20.79;100.00;99262.50;5085292;28;20016;-71
2023/09/22 03:44:20;;;;;;;14.90;3.83;;;;;;;20.94;100.00;99288.75;5101635;28;20021;-73
2023/09/22 03:46:45;;;;;;;12.80;3.55;;;;;;;20.94;100.00;99286.81;5105296;28;20093;-72
2023/09/22 03:49:11;;;;;;;13.90;3.67;;;;;;;20.80;100.00;99269.63;5089616;28;20127;-71
2023/09/22 03:51:36;;;;;;;18.08;4.30;;;;;;;20.93;100.00;99284.41;5071386;28;20007;-72
2023/09/22 03:54:02;;;;;;;15.93;4.20;;;;;;;20.90;100.00;99290.47;5091064;28;20020;-72
2023/09/22 03:56:28;;;;;;;16.15;4.35;;;;;;;20.79;100.00;99278.91;5090574;28;20016;-72
2023/09/22 03:58:54;;;;;;;17.42;4.60;;;;;;;20.87;100.00;99283.69;5117971;28;20019;-72
2023/09/22 04:01:19;;;;;;;17.40;4.25;;;;;;;20.88;100.00;99277.09;5093496;28;20076;-72
2023/09/22 04:03:44;;;;;;;15.20;4.28;;;;;;;20.90;100.00;99285.00;5061926;28;20114;-71
2023/09/22 04:06:10;;;;;;;11.40;4.60;;;;;;;20.75;100.00;99272.44;5078709;28;20044;-71
2023/09/22 04:08:37;;;;;;;12.80;4.38;;;;;;;20.71;100.00;99265.97;5069479;28;20041;-71
2023/09/22 04:11:02;;;;;;;12.35;4.70;;;;;;;20.80;100.00;99281.38;5119447;28;20024;-72
2023/09/22 04:13:29;;;;;;;15.10;4.60;;;;;;;20.67;100.00;99284.09;5067721;28;20037;-71
2023/09/22 04:16:02;;;;;;;14.85;5.00;;;;;;;20.58;100.00;99276.59;5101616;28;20042;-72
2023/09/22 04:18:30;;;;;;;15.23;5.13;;;;;;;20.53;100.00;99279.44;5091745;28;20108;-71
2023/09/22 04:20:57;;;;;;;13.93;5.03;;;;;;;20.47;100.00;99272.41;5095493;28;20038;-71
2023/09/22 04:23:25;;;;;;;11.23;5.03;;;;;;;20.57;100.00;99272.25;5078930;28;20016;-71
2023/09/22 04:25:54;;;;;;;15.63;5.55;;;;;;;20.60;100.00;99273.56;5050324;28;20036;-72
2023/09/22 04:28:23;;;;;;;12.20;5.65;;;;;;;20.67;100.00;99270.44;5073059;28;20039;-72
2023/09/22 04:30:49;;;;;;;12.20;5.30;;;;;;;20.71;100.00;99272.25;5090989;28;20015;-71
2023/09/22 04:33:15;;;;;;;13.32;5.47;;;;;;;20.60;100.00;99263.44;5065329;28;20020;-71
2023/09/22 04:35:41;;;;;;;10.75;5.55;;;;;;;20.62;100.00;99268.59;5059927;28;20070;-72
2023/09/22 04:38:08;;;;;;;14.93;5.70;;;;;;;20.65;100.00;99277.00;5078106;28;20055;-71
2023/09/22 04:40:38;;;;;;;16.17;6.20;;;;;;;20.76;100.00;99277.63;5089403;28;20028;-71
2023/09/22 04:43:07;;;;;;;11.88;6.10;;;;;;;20.67;100.00;99281.38;5081927;28;20032;-71
2023/09/22 04:45:35;;;;;;;14.45;6.25;;;;;;;20.54;100.00;99252.91;5081135;28;20021;-71
2023/09/22 04:48:04;;;;;;;10.68;6.05;;;;;;;20.64;100.00;99275.38;5079979;28;20125;-71
2023/09/22 04:50:31;;;;;;;12.13;6.15;;;;;;;20.63;100.00;99286.63;5084045;28;20021;-71
2023/09/22 04:52:57;;;;;;;14.57;6.22;;;;;;;20.54;100.00;99275.59;5078316;28;20364;-71
2023/09/22 04:55:22;;;;;;;9.10;5.45;;;;;;;20.64;100.00;99291.78;5079505;28;20032;-71
2023/09/22 04:58:07;;;;;;;12.52;6.03;;;;;;;20.65;100.00;99290.66;5079734;28;20028;-71
2023/09/22 05:00:34;;;;;;;11.52;5.97;;;;;;;20.72;100.00;99289.44;5079976;28;20021;-71
2023/09/22 05:03:06;;;;;;;9.98;5.95;;;;;;;20.72;100.00;99289.44;5061304;28;20074;-71
2023/09/22 05:05:32;;;;;;;11.43;6.45;;;;;;;20.66;100.00;99294.19;5021008;28;20049;-71
2023/09/22 05:07:59;;;;;;;10.20;6.40;;;;;;;20.72;100.00;99297.66;5037748;28;20776;-70
2023/09/22 05:10:27;;;;;;;8.30;5.88;;;;;;;20.78;100.00;99299.19;5041306;28;20045;-71
2023/09/22 05:12:53;;;;;;;8.45;6.05;;;;;;;20.82;100.00;99300.19;5019432;28;20059;-71
2023/09/22 05:15:19;;;;;;;7.30;5.85;;;;;;;20.78;100.00;99301.91;5021225;28;20100;-71
2023/09/22 05:17:45;;;;;;;9.30;6.15;;;;;;;20.81;100.00;99298.56;5023649;28;20515;-72
2023/09/22 05:20:14;;;;;;;11.20;6.28;;;;;;;20.77;100.00;99295.63;5020334;28;20294;-72
2023/09/22 05:22:40;;;;;;;11.30;5.80;;;;;;;20.88;100.00;99320.84;5036860;28;20025;-72
2023/09/22 05:25:06;;;;;;;10.98;5.65;;;;;;;20.82;100.00;99316.59;5050472;28;20751;-71
2023/09/22 05:27:31;;;;;;;7.05;4.97;;;;;;;20.70;100.00;99291.69;5047485;28;20083;-69
2023/09/22 05:29:57;;;;;;;8.48;5.70;;;;;;;20.86;100.00;99321.16;5046602;28;20041;-71
2023/09/22 05:32:22;;;;;;;9.40;5.68;;;;;;;20.85;100.00;99310.50;5034747;28;20479;-71
2023/09/22 05:34:48;;;;;;;9.18;5.60;;;;;;;20.85;100.00;99321.44;5055397;28;20132;-71
2023/09/22 05:37:13;;;;;;;8.65;5.57;;;;;;;20.84;100.00;99320.66;5026951;28;20036;-71
2023/09/22 05:39:39;;;;;;;8.40;5.40;;;;;;;20.82;100.00;99324.78;5085784;28;20391;-71
2023/09/22 05:42:06;;;;;;;12.40;5.10;;;;;;;20.70;100.00;99321.75;5046132;28;20473;-71
2023/09/22 05:44:32;;;;;;;20.27;5.03;;;;;;;20.74;100.00;99329.03;5083348;28;20025;-71
2023/09/22 05:46:58;;;;;;;19.88;4.93;;;;;;;20.78;100.00;99323.78;5063139;28;20699;-71
2023/09/22 05:49:23;;;;;;;18.98;4.05;;;;;;;20.71;100.00;99323.38;5084657;28;20043;-71
2023/09/22 05:51:49;;;;;;;18.75;4.25;;;;;;;20.42;100.00;99265.09;5057732;28;20039;-71
2023/09/22 05:54:15;;;;;;;19.75;4.28;;;;;;;20.77;100.00;99322.16;5076307;28;20043;-71
2023/09/22 05:56:40;;;;;;;21.52;4.38;;;;;;;20.76;100.00;99328.72;5090525;28;20113;-72
2023/09/22 05:59:06;;;;;;;16.45;4.22;;;;;;;20.73;100.00;99330.16;5083546;28;20632;-72
2023/09/22 06:01:36;;;;;;;27.42;4.07;;;;;;;20.71;100.00;99323.38;5092593;28;20052;-72
2023/09/22 06:04:04;;;;;;;14.45;3.15;;;;;;;20.69;100.00;99314.66;5056552;28;20050;-72
2023/09/22 06:06:30;;;;;;;16.27;3.15;;;;;;;20.65;100.00;99312.53;5099488;28;20043;-72
2023/09/22 06:08:55;;;;;;;18.33;3.42;;;;;;;20.66;100.00;99318.78;5068471;28;20037;-72
2023/09/22 06:11:20;;;;;;;16.58;2.90;;;;;;;20.59;100.00;99299.25;5105336;28;20032;-72
2023/09/22 06:13:46;;;;;;;20.58;3.28;;;;;;;20.70;100.00;99308.09;5065039;28;20102;-72
2023/09/22 06:16:12;;;;;;;13.77;3.03;;;;;;;20.74;100.00;99304.44;5080805;28;20036;-72
2023/09/22 06:18:37;;;;;;;20.17;3.50;;;;;;;20.75;100.00;99297.84;5059731;28;20038;-72
2023/09/22 06:21:03;;;;;;;21.23;3.35;;;;;;;20.78;100.00;99305.44;5077539;28;20096;-72
2023/09/22 06:23:29;;;;;;;15.57;2.95;;;;;;;20.74;100.00;99292.69;5077613;28;20028;-72
2023/09/22 06:26:04;;;;;;;20.48;3.35;;;;;;;20.80;100.00;99296.97;5094706;28;20112;-72
2023/09/22 06:28:30;;;;;;;14.15;2.83;;;;;;;20.80;100.00;99296.97;5094316;28;20016;-72
2023/09/22 06:31:03;;;;;;;17.02;3.17;;;;;;;20.81;100.00;99301.31;5037606;28;20043;-72
2023/09/22 06:33:30;;;;;;;11.45;3.13;;;;;;;20.78;100.00;99297.25;5092491;28;20038;-72
2023/09/22 06:35:57;;;;;;;13.98;3.25;;;;;;;20.79;100.00;99301.59;5089668;28;20021;-72
2023/09/22 06:38:23;;;;;;;12.52;3.33;;;;;;;20.72;100.00;99283.97;5072810;28;20035;-73
2023/09/22 06:40:50;;;;;;;13.00;3.10;;;;;;;20.68;100.00;99291.19;5073122;28;20033;-72
2023/09/22 06:43:16;;;;;;;19.20;3.22;;;;;;;20.67;100.00;99287.63;5073242;28;20025;-71
2023/09/22 06:45:41;;;;;;;16.38;3.38;;;;;;;20.84;100.00;99297.97;5072590;28;20004;-72
2023/09/22 06:48:06;;;;;;;16.25;3.13;;;;;;;20.80;100.00;99300.50;5091773;28;20028;-72
2023/09/22 06:50:36;;;;;;;15.82;3.33;;;;;;;20.82;100.00;99294.72;5109741;28;20004;-72
2023/09/22 06:53:02;;;;;;;12.35;2.95;;;;;;;20.73;100.00;99278.22;5096030;28;20028;-71
2023/09/22 06:55:30;;;;;;;13.23;3.13;;;;;;;20.78;100.00;99283.56;5098834;28;20023;-71
2023/09/22 06:58:05;;;;;;;13.02;3.25;;;;;;;20.78;100.00;99272.66;5098383;28;20012;-72
2023/09/22 07:00:32;;;;;;;10.05;3.00;;;;;;;20.82;100.00;99273.66;5088628;28;20028;-72
2023/09/22 07:02:57;;;;;;;9.05;3.08;;;;;;;20.86;100.00;99274.69;5087516;28;20032;-72
2023/09/22 07:05:23;;;;;;;15.70;3.10;;;;;;;20.90;100.00;99274.88;5069641;28;20066;-71
2023/09/22 07:07:52;;;;;;;7.55;2.58;;;;;;;20.99;100.00;99278.53;5106398;28;20032;-72
2023/09/22 07:10:18;;;;;;;9.38;2.50;;;;;;;21.02;100.00;99285.28;5086390;28;20016;-72
2023/09/22 07:12:44;;;;;;;7.13;2.47;;;;;;;20.94;100.00;99284.09;5084436;28;20137;-71
2023/09/22 07:15:10;;;;;;;10.77;2.88;;;;;;;21.05;100.00;99292.88;5084723;28;20038;-72
2023/09/22 07:17:36;;;;;;;9.35;2.60;;;;;;;21.04;100.00;99292.06;5085626;28;20028;-72
2023/09/22 07:20:08;;;;;;;11.32;3.00;;;;;;;21.06;100.00;99289.84;5073021;28;20056;-71
2023/09/22 07:22:34;;;;;;;7.55;2.40;;;;;;;21.13;100.00;99291.38;5096748;28;20012;-71
2023/09/22 07:25:00;;;;;;;12.05;2.85;;;;;;;21.04;100.00;99275.66;5089481;28;20020;-71
2023/09/22 07:27:26;;;;;;;8.23;2.47;;;;;;;21.08;100.00;99276.66;5084124;28;20028;-72
2023/09/22 07:29:52;;;;;;;10.02;2.85;;;;;;;21.18;100.00;99285.78;5090542;28;20032;-71
2023/09/22 07:32:18;;;;;;;8.45;2.63;;;;;;;21.21;100.00;99293.38;5084481;28;20050;-71
2023/09/22 07:34:45;;;;;;;12.30;2.90;;;;;;;21.14;100.00;99302.00;5061463;28;20059;-72
2023/09/22 07:37:11;;;;;;;10.10;2.20;;;;;;;20.99;100.00;99296.84;5107356;28;20031;-71
2023/09/22 07:39:40;;;;;;;6.63;2.10;;;;;;;20.86;100.00;99287.50;5088235;28;20020;-72
2023/09/22 07:42:06;;;;;;;6.82;2.03;;;;;;;20.93;100.00;99293.41;5081847;28;20016;-72
2023/09/22 07:44:32;;;;;;;8.02;2.60;;;;;;;20.90;100.00;99291.28;5096829;28;20031;-72
2023/09/22 07:47:00;;;;;;;7.25;1.88;;;;;;;20.89;100.00;99289.66;5109082;28;20028;-71
2023/09/22 07:49:26;;;;;;;6.53;2.10;;;;;;;20.87;100.00;99281.75;5116553;28;20024;-71
2023/09/22 07:51:52;;;;;;;9.65;2.08;;;;;;;20.89;100.00;99295.13;5077719;28;20040;-71
2023/09/22 07:54:20;;;;;;;8.98;2.30;;;;;;;20.91;100.00;99309.31;5097348;28;20087;-71
2023/09/22 07:56:46;;;;;;;9.43;2.90;;;;;;;20.95;100.00;99307.56;5108441;28;20031;-71
2023/09/22 07:59:16;;;;;;;8.85;2.10;;;;;;;20.94;100.00;99302.41;5081156;28;20016;-73
2023/09/22 08:01:43;;;;;;;10.13;2.45;;;;;;;20.87;100.00;99286.44;5100380;28;20028;-72
2023/09/22 08:04:11;;;;;;;7.15;2.30;;;;;;;20.99;100.00;99302.31;5070794;28;20332;-71
2023/09/22 08:06:37;;;;;;;7.05;2.20;;;;;;;21.02;100.00;99316.16;5067293;28;20036;-71
2023/09/22 08:09:05;;;;;;;8.45;1.98;;;;;;;21.04;100.00;99316.69;5071789;28;20020;-71
2023/09/22 08:11:32;;;;;;;6.40;1.80;;;;;;;21.00;100.00;99321.16;5077538;28;20016;-72
2023/09/22 08:13:58;;;;;;;9.68;1.98;;;;;;;20.93;100.00;99328.97;5080581;28;20441;-71
2023/09/22 08:16:24;;;;;;;4.63;1.50;;;;;;;20.64;100.00;99301.91;5081269;28;20104;-71
2023/09/22 08:18:50;;;;;;;2.75;1.00;;;;;;;20.68;100.00;99337.63;5084508;28;20029;-72
2023/09/22 08:21:16;;;;;;;2.13;0.90;;;;;;;20.52;100.00;99342.56;5089147;28;20023;-71
2023/09/22 08:23:42;;;;;;;3.55;1.02;;;;;;;20.41;100.00;99331.00;5096940;28;20019;-71
2023/09/22 08:26:17;;;;;;;2.08;0.98;;;;;;;20.33;100.00;99334.38;5076462;28;20024;-71
2023/09/22 08:28:45;;;;;;;1.92;0.95;;;;;;;20.16;100.00;99330.31;5093464;28;20088;-71
2023/09/22 08:31:11;;;;;;;2.78;0.88;;;;;;;20.17;100.00;99333.88;5040210;28;20162;-71
2023/09/22 08:33:37;;;;;;;2.72;0.85;;;;;;;20.17;100.00;99325.66;5070476;28;20090;-71
2023/09/22 08:36:03;;;;;;;2.08;0.88;;;;;;;20.16;100.00;99322.13;5057201;28;20051;-71
2023/09/22 08:38:33;;;;;;;3.78;0.90;;;;;;;20.18;100.00;99319.09;5103160;28;20024;-71
2023/09/22 08:41:06;;;;;;;3.58;0.85;;;;;;;20.18;100.00;99330.00;5093821;28;20036;-70
2023/09/22 08:43:33;;;;;;;2.65;0.82;;;;;;;20.21;100.00;99340.34;5088409;28;20046;-71
2023/09/22 08:46:02;;;;;;;2.58;0.70;;;;;;;20.14;100.00;99342.66;5101393;28;20036;-71
2023/09/22 08:48:28;;;;;;;2.38;0.85;;;;;;;20.10;100.00;99338.91;5079583;28;20079;-71
2023/09/22 08:50:54;;;;;;;0.93;0.60;;;;;;;20.09;100.00;99342.72;5098048;28;20024;-71
2023/09/22 08:53:20;;;;;;;1.48;0.60;;;;;;;20.12;100.00;99347.59;5097855;28;20039;-71
2023/09/22 08:55:49;;;;;;;1.13;0.60;;;;;;;20.13;100.00;99350.03;5056723;28;20056;-71
2023/09/22 08:58:16;;;;;;;1.92;0.75;;;;;;;20.22;100.00;99343.88;5087749;28;20009;-71
2023/09/22 09:00:46;;;;;;;2.13;0.65;;;;;;;20.27;100.00;99338.34;5071611;28;20052;-71
2023/09/22 09:03:12;;;;;;;2.30;0.60;;;;;;;20.38;100.00;99346.06;5085379;28;20040;-71
2023/09/22 09:05:39;;;;;;;1.58;0.68;;;;;;;20.35;100.00;99330.25;5069953;28;20053;-71
2023/09/22 09:08:12;;;;;;;3.97;0.90;;;;;;;20.51;100.00;99355.44;5071039;28;20024;-71
2023/09/22 09:10:42;;;;;;;1.83;0.70;;;;;;;20.59;100.00;99346.53;5055121;28;20060;-72
2023/09/22 09:13:12;;;;;;;3.42;1.00;;;;;;;20.64;100.00;99364.78;5092972;28;20060;-71
2023/09/22 09:15:58;;;;;;;2.80;0.80;;;;;;;20.64;100.00;99360.09;5092245;28;20033;-71
2023/09/22 09:18:24;;;;;;;2.75;0.80;;;;;;;20.61;100.00;99370.84;5083538;28;20059;-71
2023/09/22 09:21:15;;;;;;;2.78;0.80;;;;;;;20.58;100.00;99369.50;5084481;28;20080;-71
2023/09/22 09:23:56;;;;;;;5.93;1.05;;;;;;;20.54;100.00;99364.94;5086922;28;20039;-71
2023/09/22 09:26:31;;;;;;;3.70;1.00;;;;;;;20.54;100.00;99367.69;5080299;28;20032;-71
2023/09/22 09:28:58;;;;;;;2.80;0.95;;;;;;;20.59;100.00;99362.91;5092496;28;20033;-71
2023/09/22 09:31:45;;;;;;;4.28;1.00;;;;;;;20.68;100.00;99370.44;5086729;28;20025;-71
2023/09/22 09:34:11;;;;;;;7.57;1.10;;;;;;;20.78;100.00;99373.78;5092788;28;20073;-71
2023/09/22 09:36:36;;;;;;;4.47;0.88;;;;;;;20.93;100.00;99372.72;5082361;28;20021;-71
2023/09/22 09:39:03;;;;;;;4.05;1.27;;;;;;;20.90;100.00;99384.25;5066600;28;20017;-72
2023/09/22 09:41:30;;;;;;;2.90;0.80;;;;;;;20.89;100.00;99385.34;5076007;28;20092;-71
2023/09/22 09:43:58;;;;;;;3.25;1.02;;;;;;;20.73;100.00;99373.06;5086246;28;20079;-71
2023/09/22 09:46:26;;;;;;;7.57;1.80;;;;;;;20.81;100.00;99383.31;5102454;28;20109;-71
2023/09/22 09:48:55;;;;;;;3.15;1.20;;;;;;;20.84;100.00;99385.44;5080816;28;20075;-71
2023/09/22 09:51:24;;;;;;;6.00;1.45;;;;;;;20.55;100.00;99336.50;5090332;28;20024;-71
2023/09/22 09:53:51;;;;;;;5.35;1.35;;;;;;;20.84;100.00;99399.13;5065023;28;20032;-71
2023/09/22 09:56:18;;;;;;;4.65;1.10;;;;;;;20.85;100.00;99398.00;5090158;28;20034;-70
2023/09/22 09:58:47;;;;;;;3.58;1.00;;;;;;;20.72;100.00;99394.13;5086460;28;20036;-70
2023/09/22 10:01:14;;;;;;;5.70;1.40;;;;;;;20.71;100.00;99388.97;5084633;28;20023;-72
2023/09/22 10:03:39;;;;;;;5.45;1.60;;;;;;;20.63;100.00;99385.03;5084457;28;20050;-72
2023/09/22 10:06:09;;;;;;;3.75;1.10;;;;;;;20.57;100.00;99387.03;5062078;28;20032;-71
2023/09/22 10:08:35;;;;;;;9.38;1.50;;;;;;;20.46;100.00;99388.25;5104946;28;20505;-73
2023/09/22 10:11:06;;;;;;;7.03;1.20;;;;;;;20.10;100.00;99397.06;5099820;28;20024;-71
2023/09/22 10:13:33;;;;;;;8.43;1.20;;;;;;;19.64;100.00;99392.25;5095173;28;20040;-71
2023/09/22 10:16:04;;;;;;;5.57;1.05;;;;;;;19.53;100.00;99404.34;5082522;28;20013;-70
2023/09/22 10:18:50;;;;;;;8.43;1.60;;;;;;;19.40;100.00;99413.25;5077007;28;20016;-72
2023/09/22 10:21:55;;;;;;;6.38;1.00;;;;;;;19.40;100.00;99410.53;5102488;28;20079;-71
2023/09/22 10:24:24;;;;;;;8.95;1.10;;;;;;;19.30;100.00;99424.28;5098475;28;20024;-71
2023/09/22 10:26:55;;;;;;;9.93;1.40;;;;;;;19.28;100.00;99421.06;5114367;28;20046;-71
2023/09/22 10:29:33;;;;;;;5.95;1.08;;;;;;;19.20;100.00;99442.41;5078505;28;20020;-70
2023/09/22 10:34:54;;;;;;;6.63;1.10;;;;;;;19.08;100.00;99441.19;5092688;28;20040;-70
2023/09/22 10:37:24;;;;;;;4.30;0.88;;;;;;;18.97;100.00;99448.63;5071064;28;20020;-71
2023/09/22 10:40:16;;;;;;;4.68;1.10;;;;;;;18.93;100.00;99444.84;5091876;28;20032;-72
2023/09/22 10:42:49;;;;;;;4.30;1.15;;;;;;;18.87;100.00;99459.63;5100867;28;20032;-72
2023/09/22 10:45:17;;;;;;;4.10;0.88;;;;;;;18.96;100.00;99447.00;5085448;28;20008;-71
2023/09/22 10:47:51;;;;;;;4.25;0.80;;;;;;;19.06;100.00;99449.63;5091135;28;20042;-71
2023/09/22 10:50:21;;;;;;;2.28;0.70;;;;;;;18.97;100.00;99424.09;5092821;28;20158;-71
2023/09/22 10:52:58;;;;;;;4.32;1.08;;;;;;;18.99;100.00;99433.63;5097049;28;20038;-72
2023/09/22 10:55:27;;;;;;;6.05;0.95;;;;;;;19.02;100.00;99449.41;5084481;28;20039;-71
2023/09/22 10:57:54;;;;;;;2.85;0.73;;;;;;;19.07;100.00;99453.16;5087546;28;20021;-71
2023/09/22 11:00:20;;;;;;;4.38;0.75;;;;;;;19.25;100.00;99449.72;5089749;28;20041;-71
2023/09/22 11:02:45;;;;;;;3.83;0.82;;;;;;;19.11;100.00;99449.59;5090853;28;20041;-71
2023/09/22 11:05:12;;;;;;;3.35;0.73;;;;;;;19.04;100.00;99459.19;5103058;28;20047;-70
2023/09/22 11:07:37;;;;;;;3.03;0.70;;;;;;;19.18;100.00;99458.25;5086560;28;20020;-71
2023/09/22 11:10:04;;;;;;;2.30;0.70;;;;;;;19.38;100.00;99470.03;5082162;28;20044;-71
2023/09/22 11:12:30;;;;;;;4.55;0.60;;;;;;;19.61;100.00;99471.94;5074437;28;20029;-71
2023/09/22 11:14:56;;;;;;;5.32;0.63;;;;;;;19.75;100.00;99482.19;5050719;28;20035;-70
2023/09/22 11:17:22;;;;;;;2.03;0.50;;;;;;;19.82;100.00;99490.81;5071998;28;20032;-70
2023/09/22 11:19:54;;;;;;;5.68;0.77;;;;;;;19.97;100.00;99493.34;5090729;28;20019;-70
2023/09/22 11:22:20;;;;;;;2.83;0.55;;;;;;;20.07;100.00;99503.34;5077267;28;20008;-71
2023/09/22 11:24:46;;;;;;;1.98;0.50;;;;;;;20.15;100.00;99506.19;5093525;28;20047;-71
2023/09/22 11:27:12;;;;;;;2.42;0.60;;;;;;;20.20;100.00;99513.53;5072223;28;20088;-70